Time;durP1;ratioP1;P1;durP2;ratioP2;P2;SDS_P1;SDS_P2;PMS_P1;PMS_P2;Temp;Humidity;BMP_temperature;BMP_pressure;BME280_temperature;BME280_humidity;BME280_pressure;Samples;Min_cycle;Max_cycle;Signal;HPM_P1;HPM_P2
2023/04/07 00:00:23;;;;;;;5.60;0.98;;;18.30;1.00;;;;;;5033669;28;20052;-34
2023/04/07 00:02:50;;;;;;;4.20;0.80;;;18.30;1.00;;;;;;5032875;28;20041;-34
2023/04/07 00:05:17;;;;;;;6.28;1.15;;;18.20;1.00;;;;;;5033621;28;20056;-34
2023/04/07 00:07:44;;;;;;;2.97;0.63;;;18.20;1.00;;;;;;5033617;28;20049;-34
2023/04/07 00:10:23;;;;;;;7.07;1.10;;;18.20;1.00;;;;;;5033392;28;20049;-34
2023/04/07 00:12:51;;;;;;;4.47;0.90;;;18.20;1.00;;;;;;5032581;28;20132;-34
2023/04/07 00:15:17;;;;;;;3.78;0.80;;;18.20;1.00;;;;;;5033509;28;20037;-34
2023/04/07 00:17:44;;;;;;;4.22;0.90;;;18.10;1.00;;;;;;5033364;28;20512;-34
2023/04/07 00:20:11;;;;;;;2.17;1.23;;;18.10;1.00;;;;;;5033214;28;20041;-34
2023/04/07 00:22:38;;;;;;;3.45;0.70;;;18.10;1.00;;;;;;5032597;28;20049;-34
2023/04/07 00:25:06;;;;;;;2.15;0.68;;;18.10;1.00;;;;;;5033309;28;20041;-34
2023/04/07 00:27:32;;;;;;;3.85;0.93;;;18.10;1.00;;;;;;5033232;28;20054;-34
2023/04/07 00:30:00;;;;;;;3.08;0.98;;;18.00;1.00;;;;;;5031655;28;20064;-34
2023/04/07 00:32:26;;;;;;;3.85;0.85;;;18.00;1.00;;;;;;5032688;28;20580;-36
2023/04/07 00:34:53;;;;;;;2.42;0.60;;;18.00;1.00;;;;;;5032750;28;20408;-34
2023/04/07 00:37:20;;;;;;;3.17;0.93;;;18.00;1.00;;;;;;5033070;28;20042;-34
2023/04/07 00:39:47;;;;;;;3.20;0.77;;;18.00;1.00;;;;;;5032905;28;20065;-34
2023/04/07 00:42:13;;;;;;;3.25;0.70;;;18.00;1.00;;;;;;5032665;28;20056;-34
2023/04/07 00:44:40;;;;;;;4.65;1.00;;;18.00;1.00;;;;;;5031054;28;20060;-34
2023/04/07 00:47:07;;;;;;;4.07;1.00;;;17.90;1.00;;;;;;5031455;28;20052;-34
2023/04/07 00:49:36;;;;;;;2.90;1.10;;;17.90;1.00;;;;;;5031454;28;20061;-35
2023/04/07 00:52:05;;;;;;;3.90;0.98;;;17.90;1.00;;;;;;5031334;28;20488;-34
2023/04/07 00:54:32;;;;;;;6.13;1.27;;;17.90;1.00;;;;;;5030613;28;20405;-34
2023/04/07 00:56:58;;;;;;;2.80;0.70;;;17.90;1.00;;;;;;5032613;28;20041;-34
2023/04/07 00:59:25;;;;;;;4.75;0.95;;;17.80;1.00;;;;;;5031171;28;20048;-34
2023/04/07 01:02:04;;;;;;;1.88;0.60;;;17.80;1.00;;;;;;5031367;28;20136;-34
2023/04/07 01:04:43;;;;;;;3.22;0.55;;;17.80;1.00;;;;;;5031792;28;20083;-35
2023/04/07 01:07:17;;;;;;;2.97;0.98;;;17.80;1.00;;;;;;5032567;28;20096;-35
2023/04/07 01:10:00;;;;;;;4.05;0.98;;;17.80;1.00;;;;;;5030928;28;20128;-35
2023/04/07 01:13:10;;;;;;;3.47;0.80;;;17.80;1.00;;;;;;5030615;28;20064;-35
2023/04/07 01:15:39;;;;;;;3.95;0.80;;;17.70;1.00;;;;;;4990660;28;20042;-35
2023/04/07 01:18:14;;;;;;;4.65;1.20;;;17.70;1.00;;;;;;5021350;28;20471;-35
2023/04/07 01:20:43;;;;;;;2.72;0.43;;;17.70;1.00;;;;;;5032213;28;20052;-35
2023/04/07 01:23:21;;;;;;;2.22;0.50;;;17.70;1.00;;;;;;5030234;28;20530;-35
2023/04/07 01:26:00;;;;;;;5.05;0.90;;;17.70;1.00;;;;;;5030482;28;20081;-35
2023/04/07 01:28:45;;;;;;;4.22;1.35;;;17.70;1.00;;;;;;5030670;28;20408;-35
2023/04/07 01:31:14;;;;;;;4.00;1.20;;;17.70;1.00;;;;;;5032262;28;20052;-35
2023/04/07 01:33:44;;;;;;;3.67;1.00;;;17.70;1.00;;;;;;5029999;28;20057;-35
2023/04/07 01:36:12;;;;;;;2.17;1.08;;;17.60;1.00;;;;;;5032159;28;20102;-35
2023/04/07 01:38:39;;;;;;;1.05;0.30;;;17.60;1.00;;;;;;5031970;28;20073;-35
2023/04/07 01:41:09;;;;;;;2.45;0.50;;;17.60;1.00;;;;;;5031912;28;20050;-35
2023/04/07 01:43:37;;;;;;;4.07;1.27;;;17.60;1.00;;;;;;5031321;28;20452;-35
2023/04/07 01:46:04;;;;;;;7.63;1.33;;;17.60;1.00;;;;;;5031988;28;20045;-35
2023/04/07 01:48:32;;;;;;;2.28;0.55;;;17.50;1.00;;;;;;5030536;28;20485;-35
2023/04/07 01:50:59;;;;;;;4.15;0.82;;;17.50;1.00;;;;;;5031987;28;20049;-35
2023/04/07 01:53:26;;;;;;;3.92;1.08;;;17.50;1.00;;;;;;5029693;28;20054;-35
2023/04/07 01:55:53;;;;;;;3.85;1.10;;;17.50;1.00;;;;;;5030516;28;20049;-35
2023/04/07 01:58:20;;;;;;;4.18;0.82;;;17.50;1.00;;;;;;5030485;28;20071;-37
2023/04/07 02:00:49;;;;;;;5.07;0.85;;;17.50;1.00;;;;;;5030501;28;20045;-35
2023/04/07 02:03:26;;;;;;;5.60;0.90;;;17.50;1.00;;;;;;5029955;28;20053;-35
2023/04/07 02:06:03;;;;;;;2.63;0.82;;;17.50;1.00;;;;;;5030452;28;20049;-35
2023/04/07 02:08:31;;;;;;;1.38;0.60;;;17.40;1.00;;;;;;5030519;28;20096;-36
2023/04/07 02:11:02;;;;;;;2.95;1.15;;;17.40;1.00;;;;;;5031967;28;20052;-35
2023/04/07 02:13:34;;;;;;;4.75;1.00;;;17.40;1.00;;;;;;5030972;28;20378;-35
2023/04/07 02:16:01;;;;;;;2.88;0.73;;;17.40;1.00;;;;;;5030459;28;20049;-35
2023/04/07 02:18:30;;;;;;;5.22;1.02;;;17.40;1.00;;;;;;5031597;28;20038;-36
2023/04/07 02:20:59;;;;;;;3.55;0.90;;;17.40;1.00;;;;;;5030336;28;20053;-35
2023/04/07 02:23:26;;;;;;;2.58;0.80;;;17.40;1.00;;;;;;5029616;28;20045;-35
2023/04/07 02:25:56;;;;;;;3.67;0.80;;;17.40;1.00;;;;;;5030314;28;20048;-35
2023/04/07 02:28:23;;;;;;;2.88;0.75;;;17.40;1.00;;;;;;5030302;28;20053;-36
2023/04/07 02:30:50;;;;;;;3.17;0.82;;;17.30;1.00;;;;;;5031476;28;20042;-35
2023/04/07 02:33:17;;;;;;;3.53;0.55;;;17.30;1.00;;;;;;5029305;28;20042;-35
2023/04/07 02:35:43;;;;;;;3.80;0.88;;;17.30;1.00;;;;;;5031538;28;20056;-35
2023/04/07 02:38:10;;;;;;;3.25;1.10;;;17.30;1.00;;;;;;5032924;28;20528;-35
2023/04/07 02:40:37;;;;;;;3.58;1.33;;;17.30;1.00;;;;;;5035413;28;20057;-35
2023/04/07 02:43:04;;;;;;;1.77;0.98;;;17.30;1.00;;;;;;5034496;28;20049;-35
2023/04/07 02:45:30;;;;;;;4.68;0.88;;;17.30;1.00;;;;;;5035070;28;20219;-35
2023/04/07 02:47:57;;;;;;;3.28;1.15;;;17.20;1.00;;;;;;5035064;28;20045;-35
2023/04/07 02:50:25;;;;;;;2.10;0.60;;;17.20;1.00;;;;;;5035026;28;20080;-35
2023/04/07 02:52:51;;;;;;;5.28;0.70;;;17.20;1.00;;;;;;5032836;28;20131;-35
2023/04/07 02:55:18;;;;;;;2.50;0.60;;;17.20;1.00;;;;;;5034969;28;20042;-35
2023/04/07 02:57:45;;;;;;;6.80;0.90;;;17.20;1.00;;;;;;5034899;28;20448;-35
2023/04/07 03:00:24;;;;;;;4.80;1.20;;;17.20;1.00;;;;;;5033591;28;20328;-35
2023/04/07 03:03:03;;;;;;;2.78;1.02;;;17.10;1.00;;;;;;5032815;28;20049;-35
2023/04/07 03:05:34;;;;;;;4.80;1.10;;;17.10;1.00;;;;;;5033543;28;20068;-35
2023/04/07 03:08:02;;;;;;;4.97;0.55;;;17.10;1.00;;;;;;5033407;28;20045;-35
2023/04/07 03:10:29;;;;;;;5.55;1.58;;;17.10;1.00;;;;;;5033051;28;20045;-35
2023/04/07 03:12:57;;;;;;;2.47;0.73;;;17.10;1.00;;;;;;5033849;28;20412;-35
2023/04/07 03:15:23;;;;;;;4.55;1.30;;;17.10;1.00;;;;;;5034624;28;20480;-35
2023/04/07 03:17:50;;;;;;;3.63;0.93;;;17.10;1.00;;;;;;5033301;28;20041;-35
2023/04/07 03:20:18;;;;;;;4.95;1.52;;;17.10;1.00;;;;;;5033182;28;20417;-35
2023/04/07 03:22:46;;;;;;;4.00;0.63;;;17.10;1.00;;;;;;5032398;28;20459;-35
2023/04/07 03:25:20;;;;;;;2.90;1.00;;;17.10;1.00;;;;;;5033036;28;20509;-35
2023/04/07 03:27:48;;;;;;;4.15;0.90;;;17.00;1.00;;;;;;5033082;28;20136;-35
2023/04/07 03:30:15;;;;;;;1.85;0.52;;;17.00;1.00;;;;;;5033047;28;20057;-35
2023/04/07 03:32:43;;;;;;;3.00;0.50;;;17.00;1.00;;;;;;5032096;28;20049;-35
2023/04/07 03:35:10;;;;;;;3.95;0.65;;;17.00;1.00;;;;;;5032995;28;20080;-35
2023/04/07 03:37:37;;;;;;;5.20;1.05;;;17.00;1.00;;;;;;5034156;28;20044;-35
2023/04/07 03:40:10;;;;;;;3.30;0.70;;;17.00;1.00;;;;;;5032927;28;20051;-35
2023/04/07 03:42:37;;;;;;;4.20;0.85;;;17.00;1.00;;;;;;5032102;28;20500;-34
2023/04/07 03:45:06;;;;;;;3.30;0.68;;;17.00;1.00;;;;;;5032823;28;20049;-35
2023/04/07 03:47:36;;;;;;;2.92;0.82;;;17.00;1.00;;;;;;5032177;28;20136;-35
2023/04/07 03:50:05;;;;;;;3.53;1.02;;;17.00;1.00;;;;;;5032526;28;20425;-35
2023/04/07 03:52:39;;;;;;;3.90;0.95;;;16.90;1.00;;;;;;5031860;28;20456;-35
2023/04/07 03:55:16;;;;;;;4.47;1.10;;;16.90;1.00;;;;;;5032602;28;20049;-35
2023/04/07 03:57:43;;;;;;;4.43;0.95;;;16.90;1.00;;;;;;5032245;28;20054;-35
2023/04/07 04:00:10;;;;;;;3.03;1.02;;;16.90;1.00;;;;;;5032115;28;20053;-35
2023/04/07 04:02:53;;;;;;;2.25;0.73;;;16.90;1.00;;;;;;5031746;28;20386;-35
2023/04/07 04:05:20;;;;;;;6.40;0.75;;;16.90;1.00;;;;;;5033864;28;20091;-35
2023/04/07 04:07:46;;;;;;;7.68;0.60;;;16.90;1.00;;;;;;5032232;28;20055;-34
2023/04/07 04:10:15;;;;;;;2.03;0.85;;;16.90;1.00;;;;;;5038174;22;20053;-36
2023/04/07 04:12:48;;;;;;;4.13;0.90;;;16.90;1.00;;;;;;5011351;28;20042;-34
2023/04/07 04:15:17;;;;;;;4.43;1.02;;;16.80;1.00;;;;;;4995910;28;20053;-34
2023/04/07 04:17:44;;;;;;;7.68;1.08;;;16.80;1.00;;;;;;4995977;28;20510;-34
2023/04/07 04:20:11;;;;;;;2.13;0.60;;;16.80;1.00;;;;;;5005638;28;20034;-34
2023/04/07 04:22:45;;;;;;;5.45;0.80;;;16.80;1.00;;;;;;5011424;28;20057;-34
2023/04/07 04:25:12;;;;;;;3.22;0.80;;;16.80;1.00;;;;;;5013449;28;20104;-34
2023/04/07 04:27:43;;;;;;;10.65;2.40;;;16.80;1.00;;;;;;5012169;28;20049;-34
2023/04/07 04:30:16;;;;;;;3.58;1.15;;;16.80;1.00;;;;;;5012173;28;20073;-34
2023/04/07 04:32:49;;;;;;;7.50;1.73;;;16.70;1.00;;;;;;5011317;28;20046;-35
2023/04/07 04:35:20;;;;;;;7.70;0.93;;;16.80;1.00;;;;;;5012175;28;20501;-34
2023/04/07 04:38:01;;;;;;;4.90;1.60;;;16.70;1.00;;;;;;5011826;28;20141;-34
2023/04/07 04:40:28;;;;;;;6.72;1.98;;;16.70;1.00;;;;;;5011835;28;20071;-34
2023/04/07 04:42:55;;;;;;;4.55;1.00;;;16.70;1.00;;;;;;5011151;28;20053;-34
2023/04/07 04:45:23;;;;;;;5.55;0.65;;;16.70;1.00;;;;;;5011814;28;20050;-34
2023/04/07 04:47:50;;;;;;;8.50;1.65;;;16.70;1.00;;;;;;5012092;28;20041;-34
2023/04/07 04:50:17;;;;;;;4.40;1.05;;;16.70;1.00;;;;;;5013012;28;20073;-34
2023/04/07 04:52:45;;;;;;;4.30;1.13;;;16.70;1.00;;;;;;5010915;28;20062;-33
2023/04/07 04:55:18;;;;;;;7.40;1.63;;;16.70;1.00;;;;;;5011747;28;20052;-33
2023/04/07 04:57:46;;;;;;;8.55;1.40;;;16.70;1.00;;;;;;5011844;28;20121;-34
2023/04/07 05:00:18;;;;;;;8.13;1.40;;;16.60;1.00;;;;;;5012103;28;20065;-34
2023/04/07 05:02:48;;;;;;;8.88;1.10;;;16.70;1.00;;;;;;5010781;28;20140;-34
2023/04/07 05:05:15;;;;;;;7.88;1.77;;;16.60;1.00;;;;;;5012612;28;20099;-34
2023/04/07 05:07:42;;;;;;;7.40;0.90;;;16.60;1.00;;;;;;5011474;28;20140;-34
2023/04/07 05:10:13;;;;;;;5.15;1.52;;;16.60;1.00;;;;;;5011183;28;20051;-35
2023/04/07 05:12:45;;;;;;;;;;;16.60;1.00;;;;;;5011009;28;20056;-35
2023/04/07 05:15:14;;;;;;;11.20;1.38;;;16.60;1.00;;;;;;5011301;28;19921;-35
2023/04/07 05:17:42;;;;;;;2.92;0.90;;;16.60;1.00;;;;;;5012535;28;20508;-35
2023/04/07 05:20:12;;;;;;;2.80;0.85;;;16.60;1.00;;;;;;5011055;28;20513;-34
2023/04/07 05:22:40;;;;;;;3.70;0.85;;;16.50;1.00;;;;;;4999677;28;20042;-34
2023/04/07 05:25:11;;;;;;;2.70;0.82;;;16.50;1.00;;;;;;4991860;28;20054;-34
2023/04/07 05:27:40;;;;;;;5.68;0.77;;;16.60;1.00;;;;;;4990451;28;20050;-33
2023/04/07 05:30:12;;;;;;;4.80;1.05;;;16.50;1.00;;;;;;4988365;28;20583;-34
2023/04/07 05:32:39;;;;;;;7.80;1.10;;;16.50;1.00;;;;;;4990927;28;20054;-34
2023/04/07 05:35:15;;;;;;;5.25;1.15;;;16.50;1.00;;;;;;4989685;28;20435;-35
2023/04/07 05:37:49;;;;;;;7.10;1.00;;;16.50;1.00;;;;;;4996315;28;20575;-34
2023/04/07 05:40:17;;;;;;;5.55;1.58;;;16.50;1.00;;;;;;5010853;28;20050;-34
2023/04/07 05:42:44;;;;;;;7.93;1.75;;;16.50;1.00;;;;;;5009965;28;20505;-35
2023/04/07 05:45:11;;;;;;;7.53;0.95;;;16.50;1.00;;;;;;5011061;28;20045;-34
2023/04/07 05:47:41;;;;;;;5.05;1.10;;;16.50;1.00;;;;;;5010678;28;20045;-34
2023/04/07 05:50:11;;;;;;;3.75;1.50;;;16.50;1.00;;;;;;5010746;28;20052;-34
2023/04/07 05:52:39;;;;;;;4.75;1.67;;;16.40;1.00;;;;;;5009989;28;20049;-34
2023/04/07 05:55:17;;;;;;;6.78;1.98;;;16.40;1.00;;;;;;5010971;28;20038;-34
2023/04/07 05:57:44;;;;;;;4.20;0.73;;;16.50;1.00;;;;;;5010699;28;20045;-34
2023/04/07 06:00:13;;;;;;;3.40;0.70;;;16.50;1.00;;;;;;5010839;28;20067;-34
2023/04/07 06:02:40;;;;;;;3.65;1.10;;;16.40;1.00;;;;;;5011411;28;20046;-34
2023/04/07 06:05:13;;;;;;;6.30;0.93;;;16.40;1.00;;;;;;5010821;28;20046;-34
2023/04/07 06:07:39;;;;;;;1.88;0.63;;;16.40;1.00;;;;;;5010525;28;20045;-35
2023/04/07 06:10:07;;;;;;;3.05;0.73;;;16.40;1.00;;;;;;5010619;28;20050;-34
2023/04/07 06:12:34;;;;;;;3.90;0.88;;;16.40;1.00;;;;;;5013699;28;20120;-35
2023/04/07 06:15:01;;;;;;;4.25;1.38;;;16.40;1.00;;;;;;5014224;28;20454;-35
2023/04/07 06:17:28;;;;;;;2.67;0.85;;;16.40;1.00;;;;;;5015829;28;20041;-35
2023/04/07 06:19:55;;;;;;;5.07;0.85;;;16.40;1.00;;;;;;5015777;28;20034;-35
2023/04/07 06:22:21;;;;;;;4.50;1.88;;;16.40;1.00;;;;;;5014067;28;20112;-35
2023/04/07 06:24:48;;;;;;;7.28;1.23;;;16.40;1.00;;;;;;5015400;28;20456;-34
2023/04/07 06:27:16;;;;;;;3.38;0.88;;;16.30;1.00;;;;;;5015628;28;20046;-35
2023/04/07 06:29:42;;;;;;;5.72;0.90;;;16.30;1.00;;;;;;5015735;28;20042;-35
2023/04/07 06:32:09;;;;;;;2.70;0.88;;;16.30;1.00;;;;;;5014252;28;20100;-35
2023/04/07 06:34:36;;;;;;;4.88;0.80;;;16.30;1.00;;;;;;5013512;28;20097;-35
2023/04/07 06:37:04;;;;;;;8.30;1.67;;;16.30;1.00;;;;;;5014156;28;20050;-35
2023/04/07 06:39:32;;;;;;;6.47;1.65;;;16.30;1.00;;;;;;5015459;28;20096;-35
2023/04/07 06:41:58;;;;;;;4.20;0.82;;;16.30;1.00;;;;;;5015383;28;20042;-35
2023/04/07 06:44:25;;;;;;;5.38;1.25;;;16.30;1.00;;;;;;5014825;28;20422;-35
2023/04/07 06:46:54;;;;;;;4.50;0.70;;;16.30;1.00;;;;;;5015335;28;20560;-35
2023/04/07 06:49:21;;;;;;;3.28;0.85;;;16.30;1.00;;;;;;5015181;28;20486;-35
2023/04/07 06:51:47;;;;;;;5.32;0.88;;;16.30;1.00;;;;;;5015331;28;20417;-35
2023/04/07 06:54:15;;;;;;;4.00;1.00;;;16.30;1.00;;;;;;5014493;28;20121;-35
2023/04/07 06:56:42;;;;;;;7.55;1.13;;;16.30;1.00;;;;;;5015244;28;20122;-35
2023/04/07 06:59:09;;;;;;;4.82;0.88;;;16.30;1.00;;;;;;5014997;28;20046;-35
2023/04/07 07:01:36;;;;;;;3.55;0.88;;;16.20;1.00;;;;;;5014954;28;20188;-35
2023/04/07 07:04:05;;;;;;;6.28;0.98;;;16.20;1.00;;;;;;5014216;28;20046;-35
2023/04/07 07:06:32;;;;;;;3.05;0.80;;;16.20;1.00;;;;;;5014986;28;20052;-35
2023/04/07 07:08:59;;;;;;;3.45;0.90;;;16.20;1.00;;;;;;5014903;28;20164;-36
2023/04/07 07:11:26;;;;;;;5.07;1.52;;;16.20;1.00;;;;;;5014896;28;20041;-35
2023/04/07 07:13:53;;;;;;;4.28;0.85;;;16.20;1.00;;;;;;5014012;28;20482;-35
2023/04/07 07:16:22;;;;;;;8.88;1.23;;;16.20;1.00;;;;;;5014731;28;20129;-35
2023/04/07 07:18:50;;;;;;;4.80;1.02;;;16.20;1.00;;;;;;5014578;28;20046;-35
2023/04/07 07:21:17;;;;;;;4.03;1.10;;;16.20;1.00;;;;;;5014791;28;20046;-36
2023/04/07 07:23:44;;;;;;;5.63;1.40;;;16.20;1.00;;;;;;5013132;28;20076;-34
2023/04/07 07:26:11;;;;;;;2.25;0.90;;;16.20;1.00;;;;;;5014567;28;20048;-35
2023/04/07 07:28:38;;;;;;;7.05;0.80;;;16.20;1.00;;;;;;5014460;28;20520;-35
2023/04/07 07:31:14;;;;;;;4.60;1.00;;;16.10;1.00;;;;;;5014580;28;20084;-35
2023/04/07 07:33:44;;;;;;;2.78;0.70;;;16.10;1.00;;;;;;5013798;28;20065;-34
2023/04/07 07:36:11;;;;;;;6.00;1.85;;;16.10;1.00;;;;;;5014420;28;20042;-34
2023/04/07 07:38:38;;;;;;;5.30;0.57;;;16.10;1.00;;;;;;5012980;28;20045;-35
2023/04/07 07:41:06;;;;;;;3.53;0.85;;;16.10;1.00;;;;;;5014459;28;20447;-34
2023/04/07 07:43:33;;;;;;;3.08;1.13;;;16.10;1.00;;;;;;5013294;28;20165;-35
2023/04/07 07:46:00;;;;;;;5.28;1.17;;;16.10;1.00;;;;;;5013965;28;20059;-34
2023/04/07 07:48:27;;;;;;;3.38;1.48;;;16.10;1.00;;;;;;5014017;28;20497;-34
2023/04/07 07:50:55;;;;;;;6.45;0.90;;;16.10;1.00;;;;;;5014205;28;20069;-34
2023/04/07 07:53:22;;;;;;;5.43;1.40;;;16.10;1.00;;;;;;5013231;28;20121;-34
2023/04/07 07:55:49;;;;;;;5.22;1.48;;;16.10;1.00;;;;;;5014102;28;20077;-34
2023/04/07 07:58:16;;;;;;;6.05;1.05;;;16.10;1.00;;;;;;5013994;28;20072;-34
2023/04/07 08:00:43;;;;;;;5.40;1.50;;;16.10;1.00;;;;;;5013833;28;20077;-34
2023/04/07 08:03:10;;;;;;;4.30;1.33;;;16.10;1.00;;;;;;5013074;28;20042;-34
2023/04/07 08:05:37;;;;;;;4.28;1.38;;;16.10;1.00;;;;;;5013820;28;20065;-34
2023/04/07 08:08:03;;;;;;;4.78;0.90;;;16.10;1.00;;;;;;5013810;28;20050;-34
2023/04/07 08:10:30;;;;;;;5.40;1.02;;;16.10;1.00;;;;;;5013794;28;20108;-35
2023/04/07 08:12:57;;;;;;;5.85;1.38;;;16.10;1.00;;;;;;5013046;28;20447;-35
2023/04/07 08:15:24;;;;;;;7.90;0.90;;;16.10;1.00;;;;;;5013751;28;20042;-34
2023/04/07 08:17:51;;;;;;;4.90;1.17;;;16.10;1.00;;;;;;5013587;28;20034;-35
2023/04/07 08:20:50;;;;;;;6.03;1.42;;;16.10;1.00;;;;;;5013587;28;20048;-35
2023/04/07 08:23:20;;;;;;;4.05;1.45;;;16.00;1.00;;;;;;5012870;28;20100;-35
2023/04/07 08:25:52;;;;;;;6.22;1.45;;;16.10;1.00;;;;;;5013350;28;20057;-35
2023/04/07 08:28:20;;;;;;;5.60;2.13;;;16.00;1.00;;;;;;5013364;28;20456;-35
2023/04/07 08:30:47;;;;;;;7.88;2.15;;;16.00;1.00;;;;;;5013040;28;20129;-35
2023/04/07 08:33:14;;;;;;;9.07;1.63;;;16.00;1.00;;;;;;5012452;28;20042;-35
2023/04/07 08:35:41;;;;;;;2.90;1.15;;;16.00;1.00;;;;;;5013527;28;20383;-35
2023/04/07 08:38:08;;;;;;;6.10;1.38;;;16.00;1.00;;;;;;5013101;28;20486;-35
2023/04/07 08:40:35;;;;;;;5.25;1.17;;;16.00;1.00;;;;;;5013251;28;20113;-35
2023/04/07 08:43:08;;;;;;;6.40;1.83;;;16.00;1.00;;;;;;5012457;28;20046;-35
2023/04/07 08:45:39;;;;;;;3.78;1.60;;;16.00;1.00;;;;;;5013322;28;20073;-35
2023/04/07 08:48:26;;;;;;;6.22;1.77;;;16.00;1.00;;;;;;5012910;28;20069;-35
2023/04/07 08:50:53;;;;;;;5.15;1.50;;;16.00;1.00;;;;;;5013021;28;20046;-35
2023/04/07 08:53:28;;;;;;;8.40;1.02;;;16.00;1.00;;;;;;5012067;28;20497;-35
2023/04/07 08:55:56;;;;;;;6.35;1.48;;;16.00;1.00;;;;;;5013060;28;20060;-35
2023/04/07 08:58:23;;;;;;;4.05;1.17;;;16.00;1.00;;;;;;5012744;28;20100;-35
2023/04/07 09:00:50;;;;;;;4.22;1.63;;;16.00;1.00;;;;;;5012524;28;20049;-35
2023/04/07 09:03:18;;;;;;;5.80;1.27;;;16.00;1.00;;;;;;5012217;28;20394;-35
2023/04/07 09:05:45;;;;;;;5.72;1.75;;;16.00;1.00;;;;;;5012850;28;20112;-35
2023/04/07 09:08:12;;;;;;;4.25;1.85;;;16.00;1.00;;;;;;5012594;28;20049;-35
2023/04/07 09:10:39;;;;;;;8.40;1.75;;;16.00;1.00;;;;;;5012621;28;20056;-36
2023/04/07 09:13:06;;;;;;;9.77;2.47;;;16.00;1.00;;;;;;5011827;28;20068;-36
2023/04/07 09:15:33;;;;;;;5.45;2.00;;;16.00;1.00;;;;;;5012449;28;20042;-34
2023/04/07 09:18:01;;;;;;;7.07;2.78;;;16.00;1.00;;;;;;5011339;28;20498;-34
2023/04/07 09:20:57;;;;;;;6.03;2.17;;;16.00;1.00;;;;;;5012576;28;20050;-34
2023/04/07 09:23:28;;;;;;;5.18;1.83;;;16.00;1.00;;;;;;5011706;28;20417;-34
2023/04/07 09:25:55;;;;;;;6.22;2.05;;;16.00;1.00;;;;;;5012423;28;20046;-34
2023/04/07 09:28:22;;;;;;;7.20;2.45;;;16.00;1.00;;;;;;5012395;28;20112;-34
2023/04/07 09:30:54;;;;;;;5.47;2.40;;;16.00;1.00;;;;;;5012418;28;20045;-34
2023/04/07 09:33:27;;;;;;;5.05;2.88;;;16.00;1.00;;;;;;5011630;28;20033;-35
2023/04/07 09:35:54;;;;;;;5.03;1.75;;;16.00;1.00;;;;;;5012266;28;20045;-35
2023/04/07 09:38:21;;;;;;;5.65;3.20;;;16.00;1.00;;;;;;5012222;28;20049;-35
2023/04/07 09:40:48;;;;;;;8.07;2.55;;;16.00;1.00;;;;;;5012208;28;20433;-35
2023/04/07 09:43:17;;;;;;;7.10;2.22;;;16.00;1.00;;;;;;5011591;28;20461;-35
2023/04/07 09:45:44;;;;;;;7.65;2.85;;;16.00;1.00;;;;;;5011830;28;20061;-35
2023/04/07 09:48:19;;;;;;;8.25;2.65;;;16.00;1.00;;;;;;5012197;28;20125;-35
2023/04/07 09:50:50;;;;;;;6.47;2.00;;;16.00;1.00;;;;;;5012320;28;20119;-35
2023/04/07 09:53:21;;;;;;;7.35;3.10;;;16.00;1.00;;;;;;5010274;28;20054;-34
2023/04/07 09:55:49;;;;;;;6.95;2.63;;;16.00;1.00;;;;;;5012163;28;20042;-34
2023/04/07 09:58:17;;;;;;;5.05;2.53;;;16.00;1.00;;;;;;5012122;28;20213;-34
2023/04/07 10:00:44;;;;;;;7.10;2.63;;;15.90;1.00;;;;;;5011940;28;20406;-35
2023/04/07 10:03:12;;;;;;;7.10;2.45;;;16.00;1.00;;;;;;5011239;28;20441;-35
2023/04/07 10:05:40;;;;;;;5.88;2.50;;;16.00;1.00;;;;;;5012027;28;20128;-34
2023/04/07 10:08:09;;;;;;;9.30;2.45;;;16.00;1.00;;;;;;5012032;28;20516;-34
2023/04/07 10:10:40;;;;;;;8.60;2.90;;;16.00;1.00;;;;;;5011760;28;20415;-34
2023/04/07 10:13:07;;;;;;;5.80;2.67;;;16.00;1.00;;;;;;5011279;28;20129;-34
2023/04/07 10:15:35;;;;;;;8.15;3.22;;;15.90;1.00;;;;;;5011751;28;20046;-35
2023/04/07 10:18:06;;;;;;;6.93;2.95;;;15.90;1.00;;;;;;5011828;28;20042;-35
2023/04/07 10:20:33;;;;;;;9.45;3.13;;;15.90;1.00;;;;;;5011942;28;20133;-35
2023/04/07 10:23:05;;;;;;;4.97;2.60;;;15.90;1.00;;;;;;5011161;28;20057;-35
2023/04/07 10:25:35;;;;;;;9.25;2.50;;;15.90;1.00;;;;;;5012025;28;20042;-35
2023/04/07 10:28:08;;;;;;;4.28;2.65;;;16.00;1.00;;;;;;5011635;28;20046;-34
2023/04/07 10:30:35;;;;;;;8.80;3.13;;;16.00;1.00;;;;;;5011902;28;20096;-34
2023/04/07 10:33:02;;;;;;;5.25;2.83;;;16.00;1.00;;;;;;5010924;28;20447;-35
2023/04/07 10:36:07;;;;;;;5.82;3.03;;;15.90;1.00;;;;;;5011715;28;20046;-35
2023/04/07 10:38:34;;;;;;;12.77;6.13;;;15.90;1.00;;;;;;5010222;28;20046;-35
2023/04/07 10:41:40;;;;;;;13.40;6.90;;;15.90;1.00;;;;;;5011743;28;20038;-35
2023/04/07 10:44:08;;;;;;;15.48;8.07;;;15.90;1.00;;;;;;5010976;28;20046;-35
2023/04/07 10:46:45;;;;;;;13.05;7.50;;;15.90;1.00;;;;;;5011453;28;20445;-35
2023/04/07 10:49:12;;;;;;;13.88;7.68;;;15.90;1.00;;;;;;5011533;28;20053;-35
2023/04/07 10:51:41;;;;;;;16.77;7.22;;;15.90;1.00;;;;;;5011579;28;20088;-35
2023/04/07 10:54:19;;;;;;;15.35;8.45;;;15.90;1.00;;;;;;5010734;28;20056;-35
2023/04/07 10:57:08;;;;;;;15.55;7.68;;;15.90;1.00;;;;;;5011317;28;20034;-35
2023/04/07 10:59:38;;;;;;;15.30;7.82;;;15.90;1.00;;;;;;5011662;28;20391;-35
2023/04/07 11:02:14;;;;;;;13.88;7.88;;;15.90;1.00;;;;;;5014713;28;20033;-35
2023/04/07 11:04:45;;;;;;;11.43;6.93;;;15.90;1.00;;;;;;5014486;28;20482;-35
2023/04/07 11:07:13;;;;;;;13.05;8.18;;;15.90;1.00;;;;;;5015002;28;20498;-35
2023/04/07 11:09:40;;;;;;;12.25;7.82;;;15.90;1.00;;;;;;5029812;28;20038;-35
2023/04/07 11:12:07;;;;;;;12.55;7.38;;;15.80;1.00;;;;;;5014642;28;20512;-34
2023/04/07 11:14:36;;;;;;;15.25;7.78;;;15.80;1.00;;;;;;5014242;28;20045;-34
2023/04/07 11:17:03;;;;;;;14.40;6.60;;;15.80;1.00;;;;;;5014736;28;20100;-34
2023/04/07 11:19:33;;;;;;;11.93;6.47;;;15.80;1.00;;;;;;5014726;28;20052;-34
2023/04/07 11:22:16;;;;;;;10.25;5.88;;;15.80;1.00;;;;;;5014593;28;20411;-35
2023/04/07 11:24:55;;;;;;;8.80;5.57;;;15.80;1.00;;;;;;5014424;28;20064;-35
2023/04/07 11:27:22;;;;;;;9.60;5.55;;;15.80;1.00;;;;;;5014501;28;20045;-35
2023/04/07 11:29:49;;;;;;;8.75;4.97;;;15.80;1.00;;;;;;5014609;28;20353;-35
2023/04/07 11:32:24;;;;;;;9.98;5.60;;;15.80;1.00;;;;;;5014070;28;20042;-35
2023/04/07 11:34:51;;;;;;;10.18;5.78;;;15.80;1.00;;;;;;5014030;28;20049;-35
2023/04/07 11:37:24;;;;;;;7.72;4.82;;;15.80;1.00;;;;;;5013073;28;20451;-35
2023/04/07 11:39:53;;;;;;;6.85;4.72;;;15.80;1.00;;;;;;5014336;28;20081;-35
2023/04/07 11:42:38;;;;;;;9.32;5.22;;;15.80;1.00;;;;;;5014265;28;20420;-35
2023/04/07 11:45:15;;;;;;;10.75;5.00;;;15.80;1.00;;;;;;5014207;28;20045;-35
2023/04/07 11:47:43;;;;;;;6.88;3.90;;;15.80;1.00;;;;;;5014175;28;20544;-35
2023/04/07 11:50:10;;;;;;;8.02;4.43;;;15.80;1.00;;;;;;5014157;28;20038;-35
2023/04/07 11:52:41;;;;;;;10.90;6.35;;;15.80;1.00;;;;;;5013037;28;20112;-35
2023/04/07 11:55:17;;;;;;;12.57;6.32;;;15.80;1.00;;;;;;5013835;28;20046;-34
2023/04/07 11:57:47;;;;;;;10.40;6.63;;;15.80;1.00;;;;;;5013861;28;20324;-34
2023/04/07 12:00:14;;;;;;;12.38;7.00;;;15.80;1.00;;;;;;5013903;28;20125;-34
2023/04/07 12:02:41;;;;;;;11.32;5.95;;;15.80;1.00;;;;;;5013315;28;20096;-34
2023/04/07 12:05:09;;;;;;;10.23;5.55;;;15.80;1.00;;;;;;5013807;28;20456;-34
2023/04/07 12:07:38;;;;;;;9.13;5.68;;;15.80;1.00;;;;;;5013679;28;20486;-34
2023/04/07 12:10:18;;;;;;;9.38;5.30;;;15.80;1.00;;;;;;5013140;28;20058;-34
2023/04/07 12:12:46;;;;;;;9.23;4.97;;;15.80;1.00;;;;;;5027963;28;20525;-35
2023/04/07 12:15:13;;;;;;;11.35;4.78;;;15.80;1.00;;;;;;5013689;28;20038;-35
2023/04/07 12:17:46;;;;;;;9.20;4.95;;;15.80;1.00;;;;;;5013569;28;20050;-35
2023/04/07 12:20:14;;;;;;;7.32;3.97;;;15.80;1.00;;;;;;5013611;28;20042;-34
2023/04/07 12:22:41;;;;;;;7.75;4.13;;;15.80;1.00;;;;;;5013047;28;20041;-34
2023/04/07 12:25:08;;;;;;;6.90;4.10;;;15.80;1.00;;;;;;5013725;28;20467;-34
2023/04/07 12:27:34;;;;;;;8.10;4.53;;;15.80;1.00;;;;;;5013357;28;20038;-34
2023/04/07 12:30:10;;;;;;;4.82;3.58;;;15.80;1.00;;;;;;5013511;28;20345;-34
2023/04/07 12:32:37;;;;;;;6.38;4.20;;;15.80;1.00;;;;;;5012825;28;20073;-33
2023/04/07 12:35:04;;;;;;;7.03;4.07;;;15.80;1.00;;;;;;5013187;28;20092;-35
2023/04/07 12:37:31;;;;;;;6.80;3.60;;;15.80;1.00;;;;;;5013218;28;20054;-35
2023/04/07 12:39:59;;;;;;;8.27;3.92;;;15.80;1.00;;;;;;5013083;28;20061;-35
2023/04/07 12:42:26;;;;;;;6.95;3.25;;;15.80;1.00;;;;;;5012835;28;20045;-35
2023/04/07 12:44:53;;;;;;;4.57;2.97;;;15.80;1.00;;;;;;5012831;28;20046;-35
2023/04/07 12:47:20;;;;;;;4.70;3.13;;;15.80;1.00;;;;;;5013047;28;20045;-35
2023/04/07 12:49:47;;;;;;;5.10;3.90;;;15.80;1.00;;;;;;5012954;28;20062;-35
2023/04/07 12:52:16;;;;;;;6.53;3.80;;;15.80;1.00;;;;;;5012594;28;20042;-35
2023/04/07 12:54:44;;;;;;;5.30;3.08;;;15.80;1.00;;;;;;5012411;28;20042;-35
2023/04/07 12:57:11;;;;;;;4.60;2.58;;;15.80;1.00;;;;;;5012935;28;20453;-35
2023/04/07 12:59:38;;;;;;;6.28;2.47;;;15.90;1.00;;;;;;5028044;28;20465;-35
2023/04/07 13:02:05;;;;;;;5.20;3.08;;;15.90;1.00;;;;;;5012701;28;20509;-35
2023/04/07 13:04:33;;;;;;;5.35;2.95;;;15.90;1.00;;;;;;5012155;28;20041;-35
2023/04/07 13:07:01;;;;;;;6.00;3.05;;;15.90;1.00;;;;;;5012950;28;20457;-35